createdAt,value
2023-05-05T07:07:41.547Z,5.75
2023-05-05T07:10:29.368Z,5.20
2023-05-05T07:13:17.279Z,5.57
2023-05-05T07:16:03.146Z,7.72
2023-05-05T07:18:48.546Z,5.62
2023-05-05T07:21:35.030Z,6.07
2023-05-05T07:24:21.525Z,5.60
2023-05-05T07:27:07.194Z,5.35
2023-05-05T07:29:53.120Z,4.70
2023-05-05T07:32:38.802Z,4.03
2023-05-05T07:35:24.082Z,3.80
2023-05-05T07:38:10.779Z,3.47
2023-05-05T07:40:56.422Z,2.97
2023-05-05T07:43:48.014Z,3.58
2023-05-05T07:46:36.852Z,3.20
2023-05-05T07:49:22.897Z,4.75
2023-05-05T07:52:08.629Z,4.53
2023-05-05T07:54:53.996Z,3.10
2023-05-05T07:57:39.906Z,3.33
2023-05-05T08:00:25.387Z,3.10
2023-05-05T08:03:12.162Z,6.43
2023-05-05T08:06:06.824Z,2.90
2023-05-05T08:08:53.610Z,2.28
2023-05-05T08:11:39.470Z,2.85
2023-05-05T08:14:24.951Z,2.20
2023-05-05T08:17:11.190Z,3.40
2023-05-05T08:19:57.439Z,2.50
2023-05-05T08:22:43.604Z,2.90
2023-05-05T08:25:29.620Z,2.67
2023-05-05T08:28:15.526Z,2.80
2023-05-05T08:31:01.485Z,3.47
2023-05-05T08:33:47.144Z,2.90
2023-05-05T08:36:33.578Z,2.78
2023-05-05T08:39:19.372Z,3.00
2023-05-05T08:42:05.354Z,3.83
2023-05-05T08:44:51.520Z,2.70
2023-05-05T08:47:37.708Z,2.50
2023-05-05T08:50:28.894Z,2.92
2023-05-05T08:53:18.505Z,2.00
2023-05-05T08:56:04.944Z,3.47
2023-05-05T08:58:51.925Z,2.87
2023-05-05T09:01:37.885Z,2.50
2023-05-05T09:04:27.120Z,2.80
